createdAt,value
2022-11-29T00:01:41.888Z,19.5
2022-11-29T00:06:49.798Z,19.5
2022-11-29T00:11:57.758Z,19.5
2022-11-29T00:17:05.700Z,19.5
2022-11-29T00:22:13.564Z,19.4
2022-11-29T00:27:21.519Z,19.5
2022-11-29T00:32:29.422Z,19.5
2022-11-29T00:37:37.342Z,19.5
2022-11-29T00:42:45.305Z,19.5
2022-11-29T00:47:53.208Z,19.5
2022-11-29T00:53:01.121Z,19.5
2022-11-29T00:58:09.086Z,19.5
2022-11-29T01:03:15.110Z,19.4
2022-11-29T01:08:21.144Z,19.4
2022-11-29T01:13:27.233Z,19.4
2022-11-29T01:18:33.234Z,19.4
2022-11-29T01:23:39.301Z,19.4
2022-11-29T01:28:45.407Z,19.5
2022-11-29T01:33:51.407Z,19.4
2022-11-29T01:38:57.470Z,19.4
2022-11-29T01:44:03.556Z,19.4
2022-11-29T01:49:09.578Z,19.4
2022-11-29T01:54:15.620Z,19.4
2022-11-29T01:59:21.707Z,19.4
2022-11-29T02:04:27.729Z,19.4
2022-11-29T02:09:33.793Z,19.4
2022-11-29T02:14:39.882Z,19.4
2022-11-29T02:19:46.006Z,19.4
2022-11-29T02:24:51.923Z,19.4
2022-11-29T02:29:58.024Z,19.4
2022-11-29T02:35:04.057Z,19.4
2022-11-29T02:40:10.102Z,19.4
2022-11-29T02:45:16.174Z,19.3
2022-11-29T02:50:22.194Z,19.3
2022-11-29T02:55:28.266Z,19.3
2022-11-29T03:00:34.328Z,19.4
2022-11-29T03:05:40.367Z,19.4
2022-11-29T03:10:46.431Z,19.4
2022-11-29T03:15:52.553Z,19.4
2022-11-29T03:20:59.661Z,19.4
2022-11-29T03:26:05.693Z,19.4
2022-11-29T03:31:13.067Z,19.3
2022-11-29T03:36:18.940Z,19.3
2022-11-29T03:41:24.982Z,19.3
2022-11-29T03:46:31.110Z,19.3
2022-11-29T03:51:38.193Z,19.3
2022-11-29T03:56:44.263Z,19.3
2022-11-29T04:01:50.345Z,19.3
2022-11-29T04:06:56.346Z,19.4
2022-11-29T04:12:02.427Z,19.4
2022-11-29T04:17:08.488Z,19.4
2022-11-29T04:22:14.516Z,19.4
2022-11-29T04:27:20.563Z,19.4
2022-11-29T04:32:26.658Z,19.4
2022-11-29T04:37:32.666Z,19.4
2022-11-29T04:42:38.725Z,19.4
2022-11-29T04:47:44.792Z,19.3
2022-11-29T04:52:50.832Z,19.3
2022-11-29T04:57:56.878Z,19.3
2022-11-29T05:08:10.888Z,19.4
2022-11-29T05:13:16.907Z,19.4
2022-11-29T05:18:22.949Z,19.5
2022-11-29T05:23:29.027Z,19.5
2022-11-29T05:28:35.057Z,19.6
2022-11-29T05:33:41.100Z,19.7
2022-11-29T05:38:47.195Z,19.8
2022-11-29T05:43:53.212Z,19.9
2022-11-29T05:48:59.280Z,19.9
2022-11-29T05:54:05.352Z,20
2022-11-29T05:59:11.354Z,20.1
2022-11-29T06:04:17.427Z,20.2
2022-11-29T06:09:23.510Z,20.2
2022-11-29T06:14:29.519Z,20.3
2022-11-29T06:19:35.599Z,20.3
2022-11-29T06:24:41.659Z,20.4
2022-11-29T06:29:47.682Z,20.4
2022-11-29T06:34:53.729Z,20.5
2022-11-29T06:39:59.822Z,20.5
2022-11-29T06:45:05.823Z,20.5
2022-11-29T06:50:11.906Z,20.5
2022-11-29T06:55:17.965Z,20.6
2022-11-29T07:00:24.010Z,20.6
2022-11-29T07:05:30.060Z,20.6
2022-11-29T07:10:36.159Z,20.6
2022-11-29T07:15:42.154Z,20.6
2022-11-29T07:20:48.334Z,20.6
2022-11-29T07:25:54.316Z,20.6
2022-11-29T07:31:00.497Z,20.6
2022-11-29T07:36:06.388Z,20.6
2022-11-29T07:41:12.437Z,20.6
2022-11-29T07:46:18.504Z,20.6
2022-11-29T07:51:24.530Z,20.6
2022-11-29T07:56:30.610Z,20.6
2022-11-29T08:01:36.697Z,20.6
2022-11-29T08:06:42.678Z,20.6
2022-11-29T08:11:48.758Z,20.6
2022-11-29T08:16:54.794Z,20.6
2022-11-29T08:22:00.834Z,20.7
2022-11-29T08:27:06.916Z,20.7
2022-11-29T08:32:12.933Z,20.7
2022-11-29T08:37:18.988Z,20.7
2022-11-29T08:42:25.062Z,20.7
2022-11-29T08:47:31.081Z,20.6
2022-11-29T08:52:37.152Z,20.5
2022-11-29T08:57:43.232Z,20.5
2022-11-29T09:02:49.240Z,20.5
2022-11-29T09:07:55.358Z,20.6
2022-11-29T09:13:01.382Z,20.6
2022-11-29T09:18:07.412Z,20.5
2022-11-29T09:23:13.473Z,20.4
2022-11-29T09:28:19.542Z,20.3
2022-11-29T09:33:25.582Z,20.3
2022-11-29T09:38:31.619Z,20.3
2022-11-29T09:43:37.704Z,20.3
2022-11-29T09:48:43.731Z,20.3
2022-11-29T09:53:49.775Z,20.3
2022-11-29T09:58:55.855Z,20.3
2022-11-29T10:04:01.893Z,20.4
2022-11-29T10:09:07.923Z,20.5
2022-11-29T10:14:14.018Z,20.4
2022-11-29T10:19:20.043Z,20.3
2022-11-29T10:24:26.101Z,20.1
2022-11-29T10:29:32.390Z,19.9
2022-11-29T10:34:38.203Z,19.7
2022-11-29T10:39:44.250Z,19.6
2022-11-29T10:44:50.306Z,19.6
2022-11-29T10:49:56.366Z,19.6
2022-11-29T10:55:02.416Z,19.6
2022-11-29T11:00:08.495Z,19.7
2022-11-29T11:05:14.545Z,19.7
2022-11-29T11:10:20.567Z,19.9
2022-11-29T11:15:26.663Z,20
2022-11-29T11:20:32.680Z,20.2
2022-11-29T11:25:38.723Z,20.3
2022-11-29T11:35:52.714Z,20.5
2022-11-29T11:46:08.123Z,20.7
2022-11-29T11:51:12.753Z,20.7
2022-11-29T11:56:18.804Z,20.8
2022-11-29T12:01:24.861Z,20.8
2022-11-29T12:06:30.938Z,20.9
2022-11-29T12:11:36.941Z,20.9
2022-11-29T12:16:43.008Z,20.9
2022-11-29T12:21:49.088Z,20.9
2022-11-29T12:26:57.877Z,20.9
2022-11-29T12:32:01.139Z,20.9
2022-11-29T12:37:08.361Z,20.9
2022-11-29T12:42:14.367Z,20.9
2022-11-29T12:47:35.852Z,20.8
2022-11-29T12:52:27.622Z,20.7
2022-11-29T12:57:35.012Z,20.7
2022-11-29T13:02:40.864Z,20.8
2022-11-29T13:07:46.960Z,20.8
2022-11-29T13:12:52.929Z,20.8
2022-11-29T13:18:00.124Z,20.8
2022-11-29T13:23:06.184Z,20.9
2022-11-29T13:28:12.237Z,20.9
2022-11-29T13:33:18.277Z,20.9
2022-11-29T13:38:24.331Z,20.9
2022-11-29T13:43:30.825Z,20.9
2022-11-29T13:48:36.414Z,20.9
2022-11-29T13:53:48.259Z,21
2022-11-29T13:58:48.522Z,21
2022-11-29T14:03:54.567Z,21
2022-11-29T14:09:20.127Z,21
2022-11-29T14:14:06.691Z,21.1
2022-11-29T14:19:12.731Z,21.1
2022-11-29T14:24:18.831Z,21.1
2022-11-29T14:29:24.830Z,21.1
2022-11-29T14:34:30.896Z,21
2022-11-29T14:39:36.975Z,21
2022-11-29T14:44:43.182Z,21
2022-11-29T14:49:49.059Z,21
2022-11-29T14:54:55.850Z,21
2022-11-29T15:00:01.146Z,20.9
2022-11-29T15:05:07.193Z,20.9
2022-11-29T15:10:13.273Z,20.8
2022-11-29T15:15:19.297Z,20.8
2022-11-29T15:20:25.367Z,20.7
2022-11-29T15:25:31.411Z,20.6
2022-11-29T15:30:37.481Z,20.5
2022-11-29T15:35:43.493Z,20.4
2022-11-29T15:40:49.652Z,20.3
2022-11-29T15:51:03.539Z,20.3
2022-11-29T15:56:09.629Z,20.2
2022-11-29T16:01:15.699Z,20.2
2022-11-29T16:06:21.726Z,20.2
2022-11-29T16:11:27.800Z,20.2
2022-11-29T16:16:33.890Z,20.2
2022-11-29T16:21:39.864Z,20.2
2022-11-29T16:26:45.982Z,20.1
2022-11-29T16:31:52.064Z,20.1
2022-11-29T16:37:00.877Z,20.1
2022-11-29T16:42:04.116Z,20.1
2022-11-29T16:47:10.135Z,20.1
2022-11-29T16:52:16.206Z,20.1
2022-11-29T16:57:22.246Z,20.1
2022-11-29T17:02:28.380Z,20
2022-11-29T17:07:34.403Z,20
2022-11-29T17:12:44.870Z,20
2022-11-29T17:17:46.449Z,20
2022-11-29T17:22:52.545Z,20
2022-11-29T17:27:58.588Z,20
2022-11-29T17:33:04.589Z,20
2022-11-29T17:38:10.654Z,20
2022-11-29T17:43:16.752Z,19.9
2022-11-29T17:48:22.770Z,19.9
2022-11-29T17:53:28.841Z,19.9
2022-11-29T17:58:34.909Z,19.9
2022-11-29T18:03:40.923Z,19.9
2022-11-29T18:08:46.987Z,19.9
2022-11-29T18:13:53.047Z,19.9
2022-11-29T18:18:59.074Z,19.9
2022-11-29T18:24:05.124Z,19.9
2022-11-29T18:29:11.216Z,19.9
2022-11-29T18:34:17.268Z,19.9
2022-11-29T18:39:23.315Z,19.8
2022-11-29T18:44:29.369Z,19.8
2022-11-29T18:49:35.440Z,19.8
2022-11-29T18:54:41.436Z,19.8
2022-11-29T18:59:47.526Z,19.8
2022-11-29T19:04:53.670Z,19.8
2022-11-29T19:09:59.606Z,19.8
2022-11-29T19:15:05.677Z,19.8
2022-11-29T19:20:11.705Z,19.8
2022-11-29T19:25:17.760Z,19.8
2022-11-29T19:30:23.838Z,19.8
2022-11-29T19:35:29.851Z,19.8
2022-11-29T19:40:35.920Z,19.8
2022-11-29T19:45:42.057Z,19.8
2022-11-29T19:50:48.037Z,19.8
2022-11-29T19:55:54.416Z,19.8
2022-11-29T20:01:00.160Z,19.8
2022-11-29T20:06:06.169Z,19.8
2022-11-29T20:11:12.237Z,19.7
2022-11-29T20:16:18.463Z,19.7
2022-11-29T20:21:24.342Z,19.7
2022-11-29T20:26:30.397Z,19.7
2022-11-29T20:31:36.516Z,19.7
2022-11-29T20:36:42.511Z,19.7
2022-11-29T20:41:48.576Z,19.7
2022-11-29T20:46:54.632Z,19.7
2022-11-29T20:52:00.665Z,19.7
2022-11-29T20:57:06.735Z,19.7
2022-11-29T21:02:12.781Z,19.7
2022-11-29T21:07:18.889Z,19.7
2022-11-29T21:12:24.884Z,19.7
2022-11-29T21:17:33.704Z,19.7
2022-11-29T21:22:36.987Z,19.7
2022-11-29T21:27:43.036Z,19.7
2022-11-29T21:32:49.124Z,19.7
2022-11-29T21:37:55.149Z,19.7
2022-11-29T21:43:01.201Z,19.7
2022-11-29T21:48:07.271Z,19.6
2022-11-29T21:53:13.312Z,19.6
2022-11-29T21:58:19.349Z,19.6
2022-11-29T22:03:25.433Z,19.6
2022-11-29T22:08:31.452Z,19.6
2022-11-29T22:13:38.631Z,19.7
2022-11-29T22:18:44.709Z,19.7
2022-11-29T22:23:50.721Z,19.7
2022-11-29T22:28:56.785Z,19.6
2022-11-29T22:34:04.006Z,19.6
2022-11-29T22:39:10.024Z,19.6
2022-11-29T22:44:16.072Z,19.6
2022-11-29T22:49:22.152Z,19.6
2022-11-29T22:54:28.171Z,19.6
2022-11-29T22:59:34.225Z,19.6
2022-11-29T23:04:40.287Z,19.6
2022-11-29T23:09:46.338Z,19.6
2022-11-29T23:14:56.352Z,19.6
2022-11-29T23:19:58.490Z,19.6
2022-11-29T23:25:04.500Z,19.6
2022-11-29T23:30:10.547Z,19.5
2022-11-29T23:35:16.601Z,19.5
2022-11-29T23:40:22.649Z,19.6
2022-11-29T23:45:28.804Z,19.6
2022-11-29T23:50:34.799Z,19.6
2022-11-29T23:55:40.788Z,19.6
